sensor_id;sensor_type;location;lat;lon;timestamp;P1;durP1;ratioP1;P2;durP2;ratioP2
74612;SDS011;63119;51.788;8.824;2022-10-31T00:01:12;10.43;;;5.13;;
74612;SDS011;63119;51.788;8.824;2022-10-31T00:03:39;12.27;;;6.40;;
74612;SDS011;63119;51.788;8.824;2022-10-31T00:06:05;12.07;;;5.33;;
74612;SDS011;63119;51.788;8.824;2022-10-31T00:08:30;11.10;;;5.10;;
74612;SDS011;63119;51.788;8.824;2022-10-31T00:10:55;8.87;;;5.30;;
74612;SDS011;63119;51.788;8.824;2022-10-31T00:13:21;11.17;;;5.13;;
74612;SDS011;63119;51.788;8.824;2022-10-31T00:15:46;11.13;;;4.57;;
74612;SDS011;63119;51.788;8.824;2022-10-31T00:18:11;12.70;;;4.80;;
74612;SDS011;63119;51.788;8.824;2022-10-31T00:20:36;9.63;;;4.63;;
74612;SDS011;63119;51.788;8.824;2022-10-31T00:23:02;9.63;;;4.45;;
74612;SDS011;63119;51.788;8.824;2022-10-31T00:25:29;11.15;;;5.10;;
74612;SDS011;63119;51.788;8.824;2022-10-31T00:27:59;8.73;;;4.03;;
74612;SDS011;63119;51.788;8.824;2022-10-31T00:30:24;11.07;;;4.97;;
74612;SDS011;63119;51.788;8.824;2022-10-31T00:32:49;10.02;;;4.95;;
74612;SDS011;63119;51.788;8.824;2022-10-31T00:35:15;12.20;;;4.82;;
74612;SDS011;63119;51.788;8.824;2022-10-31T00:37:40;8.65;;;4.65;;
74612;SDS011;63119;51.788;8.824;2022-10-31T00:40:06;15.10;;;5.00;;
74612;SDS011;63119;51.788;8.824;2022-10-31T00:42:31;9.13;;;4.35;;
74612;SDS011;63119;51.788;8.824;2022-10-31T00:44:56;7.93;;;4.53;;
74612;SDS011;63119;51.788;8.824;2022-10-31T00:47:22;9.53;;;4.93;;
74612;SDS011;63119;51.788;8.824;2022-10-31T00:49:47;8.57;;;4.50;;
74612;SDS011;63119;51.788;8.824;2022-10-31T00:52:12;7.90;;;4.27;;
74612;SDS011;63119;51.788;8.824;2022-10-31T00:54:37;9.23;;;4.43;;
74612;SDS011;63119;51.788;8.824;2022-10-31T00:57:03;7.43;;;4.73;;
74612;SDS011;63119;51.788;8.824;2022-10-31T00:59:28;11.70;;;4.50;;
74612;SDS011;63119;51.788;8.824;2022-10-31T01:01:53;11.60;;;4.43;;
74612;SDS011;63119;51.788;8.824;2022-10-31T01:04:18;9.37;;;4.80;;
74612;SDS011;63119;51.788;8.824;2022-10-31T01:06:44;9.63;;;4.63;;
74612;SDS011;63119;51.788;8.824;2022-10-31T01:09:09;13.87;;;4.70;;
74612;SDS011;63119;51.788;8.824;2022-10-31T01:11:34;11.57;;;4.40;;
74612;SDS011;63119;51.788;8.824;2022-10-31T01:14:00;10.68;;;4.60;;
74612;SDS011;63119;51.788;8.824;2022-10-31T01:16:26;9.90;;;4.53;;
74612;SDS011;63119;51.788;8.824;2022-10-31T01:18:52;10.27;;;4.63;;
74612;SDS011;63119;51.788;8.824;2022-10-31T01:21:19;9.40;;;4.68;;
74612;SDS011;63119;51.788;8.824;2022-10-31T01:23:46;10.82;;;4.85;;
74612;SDS011;63119;51.788;8.824;2022-10-31T01:26:15;6.77;;;4.00;;
74612;SDS011;63119;51.788;8.824;2022-10-31T01:28:46;10.65;;;4.18;;
74612;SDS011;63119;51.788;8.824;2022-10-31T01:31:16;11.43;;;4.70;;
74612;SDS011;63119;51.788;8.824;2022-10-31T01:33:43;9.40;;;4.25;;
74612;SDS011;63119;51.788;8.824;2022-10-31T01:38:42;8.07;;;4.07;;
74612;SDS011;63119;51.788;8.824;2022-10-31T01:41:08;12.15;;;5.63;;
74612;SDS011;63119;51.788;8.824;2022-10-31T01:43:44;11.05;;;4.88;;
74612;SDS011;63119;51.788;8.824;2022-10-31T01:46:22;10.50;;;5.20;;
74612;SDS011;63119;51.788;8.824;2022-10-31T01:49:00;9.77;;;4.20;;
74612;SDS011;63119;51.788;8.824;2022-10-31T01:51:30;15.35;;;4.45;;
74612;SDS011;63119;51.788;8.824;2022-10-31T01:54:00;7.05;;;4.75;;
74612;SDS011;63119;51.788;8.824;2022-10-31T01:56:29;11.18;;;4.90;;
74612;SDS011;63119;51.788;8.824;2022-10-31T01:58:57;10.25;;;4.75;;
74612;SDS011;63119;51.788;8.824;2022-10-31T02:01:25;8.82;;;4.93;;
74612;SDS011;63119;51.788;8.824;2022-10-31T02:03:50;8.43;;;4.40;;
74612;SDS011;63119;51.788;8.824;2022-10-31T02:06:59;9.10;;;4.53;;
74612;SDS011;63119;51.788;8.824;2022-10-31T02:09:11;10.95;;;4.18;;
74612;SDS011;63119;51.788;8.824;2022-10-31T02:11:38;9.10;;;4.32;;
74612;SDS011;63119;51.788;8.824;2022-10-31T02:14:05;9.45;;;4.70;;
74612;SDS011;63119;51.788;8.824;2022-10-31T02:16:30;11.57;;;4.93;;
74612;SDS011;63119;51.788;8.824;2022-10-31T02:18:55;10.00;;;4.33;;
74612;SDS011;63119;51.788;8.824;2022-10-31T02:21:38;10.85;;;5.10;;
74612;SDS011;63119;51.788;8.824;2022-10-31T02:27:07;12.60;;;4.80;;
74612;SDS011;63119;51.788;8.824;2022-10-31T02:37:51;8.25;;;4.07;;
74612;SDS011;63119;51.788;8.824;2022-10-31T02:40:30;12.65;;;4.80;;
74612;SDS011;63119;51.788;8.824;2022-10-31T02:43:17;15.95;;;4.25;;
74612;SDS011;63119;51.788;8.824;2022-10-31T02:45:54;9.38;;;4.82;;
74612;SDS011;63119;51.788;8.824;2022-10-31T02:48:40;9.80;;;4.88;;
74612;SDS011;63119;51.788;8.824;2022-10-31T02:51:09;12.45;;;5.05;;
74612;SDS011;63119;51.788;8.824;2022-10-31T02:53:36;7.72;;;4.50;;
74612;SDS011;63119;51.788;8.824;2022-10-31T02:58:39;9.57;;;4.57;;
74612;SDS011;63119;51.788;8.824;2022-10-31T03:09:26;11.18;;;4.60;;
74612;SDS011;63119;51.788;8.824;2022-10-31T03:12:02;11.57;;;4.43;;
74612;SDS011;63119;51.788;8.824;2022-10-31T03:17:11;7.32;;;4.03;;
74612;SDS011;63119;51.788;8.824;2022-10-31T03:19:42;9.88;;;4.80;;
74612;SDS011;63119;51.788;8.824;2022-10-31T03:22:15;11.07;;;4.97;;
74612;SDS011;63119;51.788;8.824;2022-10-31T03:24:44;9.60;;;4.38;;
74612;SDS011;63119;51.788;8.824;2022-10-31T03:27:12;8.45;;;4.28;;
74612;SDS011;63119;51.788;8.824;2022-10-31T03:29:40;10.30;;;4.70;;
74612;SDS011;63119;51.788;8.824;2022-10-31T03:32:10;10.90;;;4.57;;
74612;SDS011;63119;51.788;8.824;2022-10-31T03:34:40;9.35;;;4.38;;
74612;SDS011;63119;51.788;8.824;2022-10-31T03:37:09;14.45;;;5.07;;
74612;SDS011;63119;51.788;8.824;2022-10-31T03:39:39;10.30;;;4.47;;
74612;SDS011;63119;51.788;8.824;2022-10-31T03:42:07;12.38;;;4.75;;
74612;SDS011;63119;51.788;8.824;2022-10-31T03:44:36;8.52;;;4.78;;
74612;SDS011;63119;51.788;8.824;2022-10-31T03:47:03;8.85;;;4.32;;
74612;SDS011;63119;51.788;8.824;2022-10-31T03:49:29;8.48;;;4.40;;
74612;SDS011;63119;51.788;8.824;2022-10-31T03:51:58;10.50;;;4.85;;
74612;SDS011;63119;51.788;8.824;2022-10-31T03:57:58;10.13;;;4.47;;
74612;SDS011;63119;51.788;8.824;2022-10-31T04:00:28;13.15;;;5.00;;
74612;SDS011;63119;51.788;8.824;2022-10-31T04:02:58;11.57;;;5.25;;
74612;SDS011;63119;51.788;8.824;2022-10-31T04:05:28;10.60;;;5.63;;
74612;SDS011;63119;51.788;8.824;2022-10-31T04:07:55;11.38;;;5.57;;
74612;SDS011;63119;51.788;8.824;2022-10-31T04:10:23;10.27;;;4.50;;
74612;SDS011;63119;51.788;8.824;2022-10-31T04:12:53;15.18;;;5.68;;
74612;SDS011;63119;51.788;8.824;2022-10-31T04:15:23;9.02;;;4.43;;
74612;SDS011;63119;51.788;8.824;2022-10-31T04:17:50;12.50;;;5.78;;
74612;SDS011;63119;51.788;8.824;2022-10-31T04:20:28;10.77;;;4.55;;
74612;SDS011;63119;51.788;8.824;2022-10-31T04:22:54;10.95;;;5.45;;
74612;SDS011;63119;51.788;8.824;2022-10-31T04:25:20;9.40;;;5.37;;
74612;SDS011;63119;51.788;8.824;2022-10-31T04:27:45;10.57;;;4.70;;
74612;SDS011;63119;51.788;8.824;2022-10-31T04:30:10;11.73;;;5.07;;
74612;SDS011;63119;51.788;8.824;2022-10-31T04:32:36;9.93;;;5.25;;
74612;SDS011;63119;51.788;8.824;2022-10-31T04:35:01;11.57;;;6.07;;
74612;SDS011;63119;51.788;8.824;2022-10-31T04:37:26;11.60;;;5.80;;
74612;SDS011;63119;51.788;8.824;2022-10-31T04:39:52;12.23;;;5.30;;
74612;SDS011;63119;51.788;8.824;2022-10-31T04:42:17;9.27;;;4.93;;
74612;SDS011;63119;51.788;8.824;2022-10-31T04:44:42;9.87;;;4.97;;
74612;SDS011;63119;51.788;8.824;2022-10-31T04:47:07;9.20;;;5.63;;
74612;SDS011;63119;51.788;8.824;2022-10-31T04:49:33;13.87;;;5.43;;
74612;SDS011;63119;51.788;8.824;2022-10-31T04:51:58;10.97;;;5.37;;
74612;SDS011;63119;51.788;8.824;2022-10-31T04:54:23;11.53;;;5.20;;
74612;SDS011;63119;51.788;8.824;2022-10-31T04:56:48;9.67;;;5.07;;
74612;SDS011;63119;51.788;8.824;2022-10-31T04:59:13;11.13;;;5.57;;
74612;SDS011;63119;51.788;8.824;2022-10-31T05:01:39;10.53;;;5.20;;
74612;SDS011;63119;51.788;8.824;2022-10-31T05:04:04;10.83;;;5.40;;
74612;SDS011;63119;51.788;8.824;2022-10-31T05:06:29;12.67;;;5.87;;
74612;SDS011;63119;51.788;8.824;2022-10-31T05:08:55;9.40;;;5.43;;
74612;SDS011;63119;51.788;8.824;2022-10-31T05:11:20;14.90;;;5.67;;
74612;SDS011;63119;51.788;8.824;2022-10-31T05:13:45;11.50;;;5.20;;
74612;SDS011;63119;51.788;8.824;2022-10-31T05:16:10;11.23;;;5.80;;
74612;SDS011;63119;51.788;8.824;2022-10-31T05:18:36;14.93;;;4.73;;
74612;SDS011;63119;51.788;8.824;2022-10-31T05:21:01;10.00;;;5.20;;
74612;SDS011;63119;51.788;8.824;2022-10-31T05:23:26;11.05;;;4.50;;
74612;SDS011;63119;51.788;8.824;2022-10-31T05:25:52;9.67;;;4.70;;
74612;SDS011;63119;51.788;8.824;2022-10-31T05:28:17;12.30;;;6.00;;
74612;SDS011;63119;51.788;8.824;2022-10-31T05:30:42;14.93;;;5.33;;
74612;SDS011;63119;51.788;8.824;2022-10-31T05:33:08;10.97;;;5.33;;
74612;SDS011;63119;51.788;8.824;2022-10-31T05:35:33;10.57;;;5.93;;
74612;SDS011;63119;51.788;8.824;2022-10-31T05:37:58;11.27;;;5.47;;
74612;SDS011;63119;51.788;8.824;2022-10-31T05:40:25;9.18;;;5.20;;
74612;SDS011;63119;51.788;8.824;2022-10-31T05:42:51;11.48;;;5.70;;
74612;SDS011;63119;51.788;8.824;2022-10-31T05:45:18;12.25;;;5.18;;
74612;SDS011;63119;51.788;8.824;2022-10-31T05:47:54;11.02;;;5.30;;
74612;SDS011;63119;51.788;8.824;2022-10-31T05:50:20;10.48;;;4.95;;
74612;SDS011;63119;51.788;8.824;2022-10-31T05:52:46;12.10;;;5.50;;
74612;SDS011;63119;51.788;8.824;2022-10-31T05:55:12;14.27;;;6.13;;
74612;SDS011;63119;51.788;8.824;2022-10-31T05:57:37;11.47;;;5.80;;
74612;SDS011;63119;51.788;8.824;2022-10-31T06:00:03;9.50;;;5.63;;
74612;SDS011;63119;51.788;8.824;2022-10-31T06:02:29;11.43;;;6.03;;
74612;SDS011;63119;51.788;8.824;2022-10-31T06:04:59;9.82;;;5.60;;
74612;SDS011;63119;51.788;8.824;2022-10-31T06:07:24;11.23;;;6.15;;
74612;SDS011;63119;51.788;8.824;2022-10-31T06:09:50;11.10;;;5.37;;
74612;SDS011;63119;51.788;8.824;2022-10-31T06:12:15;11.73;;;5.10;;
74612;SDS011;63119;51.788;8.824;2022-10-31T06:14:40;12.17;;;6.03;;
74612;SDS011;63119;51.788;8.824;2022-10-31T06:17:06;13.73;;;6.07;;
74612;SDS011;63119;51.788;8.824;2022-10-31T06:19:31;11.70;;;5.85;;
74612;SDS011;63119;51.788;8.824;2022-10-31T06:21:56;15.17;;;7.23;;
74612;SDS011;63119;51.788;8.824;2022-10-31T06:24:22;14.67;;;7.10;;
74612;SDS011;63119;51.788;8.824;2022-10-31T06:26:47;14.53;;;7.60;;
74612;SDS011;63119;51.788;8.824;2022-10-31T06:29:12;14.00;;;9.47;;
74612;SDS011;63119;51.788;8.824;2022-10-31T06:31:37;19.07;;;7.73;;
74612;SDS011;63119;51.788;8.824;2022-10-31T06:34:03;18.53;;;9.03;;
74612;SDS011;63119;51.788;8.824;2022-10-31T06:36:28;16.63;;;6.70;;
74612;SDS011;63119;51.788;8.824;2022-10-31T06:38:53;14.97;;;6.77;;
74612;SDS011;63119;51.788;8.824;2022-10-31T06:41:18;13.57;;;7.40;;
74612;SDS011;63119;51.788;8.824;2022-10-31T06:43:46;18.48;;;8.75;;
74612;SDS011;63119;51.788;8.824;2022-10-31T06:46:12;14.68;;;7.20;;
74612;SDS011;63119;51.788;8.824;2022-10-31T06:48:37;15.77;;;7.60;;
74612;SDS011;63119;51.788;8.824;2022-10-31T06:51:02;17.10;;;8.57;;
74612;SDS011;63119;51.788;8.824;2022-10-31T06:53:28;17.93;;;8.93;;
74612;SDS011;63119;51.788;8.824;2022-10-31T06:55:56;21.60;;;9.75;;
74612;SDS011;63119;51.788;8.824;2022-10-31T06:58:22;20.80;;;9.10;;
74612;SDS011;63119;51.788;8.824;2022-10-31T07:00:47;20.52;;;9.00;;
74612;SDS011;63119;51.788;8.824;2022-10-31T07:03:13;16.87;;;7.93;;
74612;SDS011;63119;51.788;8.824;2022-10-31T07:05:40;20.15;;;8.95;;
74612;SDS011;63119;51.788;8.824;2022-10-31T07:08:07;18.70;;;8.43;;
74612;SDS011;63119;51.788;8.824;2022-10-31T07:10:35;17.70;;;9.05;;
74612;SDS011;63119;51.788;8.824;2022-10-31T07:13:02;22.20;;;9.93;;
74612;SDS011;63119;51.788;8.824;2022-10-31T07:15:30;17.67;;;9.18;;
74612;SDS011;63119;51.788;8.824;2022-10-31T07:17:59;19.50;;;9.13;;
74612;SDS011;63119;51.788;8.824;2022-10-31T07:20:26;19.75;;;8.80;;
74612;SDS011;63119;51.788;8.824;2022-10-31T07:22:51;20.08;;;8.75;;
74612;SDS011;63119;51.788;8.824;2022-10-31T07:25:17;17.10;;;10.13;;
74612;SDS011;63119;51.788;8.824;2022-10-31T07:27:43;18.00;;;9.27;;
74612;SDS011;63119;51.788;8.824;2022-10-31T07:30:09;20.38;;;10.10;;
74612;SDS011;63119;51.788;8.824;2022-10-31T07:32:39;20.70;;;9.82;;
74612;SDS011;63119;51.788;8.824;2022-10-31T07:35:06;21.98;;;10.90;;
74612;SDS011;63119;51.788;8.824;2022-10-31T07:37:36;22.58;;;10.85;;
74612;SDS011;63119;51.788;8.824;2022-10-31T07:40:02;16.42;;;9.45;;
74612;SDS011;63119;51.788;8.824;2022-10-31T07:42:28;18.60;;;9.77;;
74612;SDS011;63119;51.788;8.824;2022-10-31T07:44:54;22.23;;;10.97;;
74612;SDS011;63119;51.788;8.824;2022-10-31T07:47:19;21.20;;;9.82;;
74612;SDS011;63119;51.788;8.824;2022-10-31T07:49:45;22.50;;;11.10;;
74612;SDS011;63119;51.788;8.824;2022-10-31T07:52:10;26.63;;;11.60;;
74612;SDS011;63119;51.788;8.824;2022-10-31T07:54:35;27.10;;;11.33;;
74612;SDS011;63119;51.788;8.824;2022-10-31T07:57:00;21.47;;;10.33;;
74612;SDS011;63119;51.788;8.824;2022-10-31T07:59:26;21.63;;;10.30;;
74612;SDS011;63119;51.788;8.824;2022-10-31T08:01:52;22.98;;;11.65;;
74612;SDS011;63119;51.788;8.824;2022-10-31T08:04:17;25.77;;;13.13;;
74612;SDS011;63119;51.788;8.824;2022-10-31T08:06:42;23.90;;;12.07;;
74612;SDS011;63119;51.788;8.824;2022-10-31T08:09:11;23.73;;;12.77;;
74612;SDS011;63119;51.788;8.824;2022-10-31T08:11:36;24.75;;;11.60;;
74612;SDS011;63119;51.788;8.824;2022-10-31T08:14:01;23.63;;;12.53;;
74612;SDS011;63119;51.788;8.824;2022-10-31T08:16:27;27.03;;;12.23;;
74612;SDS011;63119;51.788;8.824;2022-10-31T08:18:52;26.77;;;12.57;;
74612;SDS011;63119;51.788;8.824;2022-10-31T08:21:20;25.33;;;12.32;;
74612;SDS011;63119;51.788;8.824;2022-10-31T08:23:45;25.95;;;13.27;;
74612;SDS011;63119;51.788;8.824;2022-10-31T08:26:11;26.27;;;12.90;;
74612;SDS011;63119;51.788;8.824;2022-10-31T08:28:36;21.97;;;12.03;;
74612;SDS011;63119;51.788;8.824;2022-10-31T08:31:01;27.73;;;13.30;;
74612;SDS011;63119;51.788;8.824;2022-10-31T08:33:26;27.20;;;13.03;;
74612;SDS011;63119;51.788;8.824;2022-10-31T08:35:52;26.77;;;13.63;;
74612;SDS011;63119;51.788;8.824;2022-10-31T08:38:17;21.60;;;13.00;;
74612;SDS011;63119;51.788;8.824;2022-10-31T08:40:42;26.53;;;13.00;;
74612;SDS011;63119;51.788;8.824;2022-10-31T08:43:11;23.77;;;12.03;;
74612;SDS011;63119;51.788;8.824;2022-10-31T08:45:38;25.38;;;12.32;;
74612;SDS011;63119;51.788;8.824;2022-10-31T08:48:04;27.38;;;13.48;;
74612;SDS011;63119;51.788;8.824;2022-10-31T08:50:32;26.20;;;13.75;;
74612;SDS011;63119;51.788;8.824;2022-10-31T08:53:00;26.30;;;12.68;;
74612;SDS011;63119;51.788;8.824;2022-10-31T08:55:34;25.83;;;12.35;;
74612;SDS011;63119;51.788;8.824;2022-10-31T08:58:00;28.98;;;14.63;;
74612;SDS011;63119;51.788;8.824;2022-10-31T09:00:26;29.80;;;13.63;;
74612;SDS011;63119;51.788;8.824;2022-10-31T09:02:58;24.42;;;12.48;;
74612;SDS011;63119;51.788;8.824;2022-10-31T09:05:24;26.70;;;12.88;;
74612;SDS011;63119;51.788;8.824;2022-10-31T09:07:50;30.80;;;13.88;;
74612;SDS011;63119;51.788;8.824;2022-10-31T09:10:16;27.42;;;14.25;;
74612;SDS011;63119;51.788;8.824;2022-10-31T09:12:41;23.10;;;13.10;;
74612;SDS011;63119;51.788;8.824;2022-10-31T09:15:06;28.07;;;13.43;;
74612;SDS011;63119;51.788;8.824;2022-10-31T09:17:32;28.65;;;13.40;;
74612;SDS011;63119;51.788;8.824;2022-10-31T09:19:58;24.60;;;11.98;;
74612;SDS011;63119;51.788;8.824;2022-10-31T09:22:23;28.23;;;13.30;;
74612;SDS011;63119;51.788;8.824;2022-10-31T09:24:48;29.93;;;13.07;;
74612;SDS011;63119;51.788;8.824;2022-10-31T09:27:13;29.73;;;12.57;;
74612;SDS011;63119;51.788;8.824;2022-10-31T09:29:39;30.90;;;13.20;;
74612;SDS011;63119;51.788;8.824;2022-10-31T09:32:04;24.73;;;12.33;;
74612;SDS011;63119;51.788;8.824;2022-10-31T09:34:29;27.47;;;12.73;;
74612;SDS011;63119;51.788;8.824;2022-10-31T09:36:54;27.03;;;12.03;;
74612;SDS011;63119;51.788;8.824;2022-10-31T09:39:20;21.73;;;11.63;;
74612;SDS011;63119;51.788;8.824;2022-10-31T09:44:46;27.60;;;13.10;;
74612;SDS011;63119;51.788;8.824;2022-10-31T09:56:15;20.65;;;9.35;;
74612;SDS011;63119;51.788;8.824;2022-10-31T09:58:45;18.05;;;8.93;;
74612;SDS011;63119;51.788;8.824;2022-10-31T10:01:16;24.70;;;10.50;;
74612;SDS011;63119;51.788;8.824;2022-10-31T10:06:44;21.45;;;9.75;;
74612;SDS011;63119;51.788;8.824;2022-10-31T10:09:13;20.08;;;10.00;;
74612;SDS011;63119;51.788;8.824;2022-10-31T10:17:38;17.30;;;8.25;;
74612;SDS011;63119;51.788;8.824;2022-10-31T10:23:23;17.88;;;8.90;;
74612;SDS011;63119;51.788;8.824;2022-10-31T10:26:17;19.02;;;8.40;;
74612;SDS011;63119;51.788;8.824;2022-10-31T10:28:47;20.33;;;10.00;;
74612;SDS011;63119;51.788;8.824;2022-10-31T10:31:18;20.90;;;9.88;;
74612;SDS011;63119;51.788;8.824;2022-10-31T10:33:55;20.65;;;8.68;;
74612;SDS011;63119;51.788;8.824;2022-10-31T10:36:28;20.48;;;9.25;;
74612;SDS011;63119;51.788;8.824;2022-10-31T10:39:04;21.83;;;10.10;;
74612;SDS011;63119;51.788;8.824;2022-10-31T10:41:44;20.60;;;9.32;;
74612;SDS011;63119;51.788;8.824;2022-10-31T10:44:33;20.02;;;9.70;;
74612;SDS011;63119;51.788;8.824;2022-10-31T10:47:20;21.30;;;10.02;;
74612;SDS011;63119;51.788;8.824;2022-10-31T10:50:21;22.40;;;9.80;;
74612;SDS011;63119;51.788;8.824;2022-10-31T10:53:03;20.45;;;8.68;;
74612;SDS011;63119;51.788;8.824;2022-10-31T10:58:46;18.40;;;8.45;;
74612;SDS011;63119;51.788;8.824;2022-10-31T11:01:13;22.00;;;9.43;;
74612;SDS011;63119;51.788;8.824;2022-10-31T11:03:40;15.77;;;7.85;;
74612;SDS011;63119;51.788;8.824;2022-10-31T11:06:15;16.33;;;8.55;;
74612;SDS011;63119;51.788;8.824;2022-10-31T11:08:49;13.63;;;7.07;;
74612;SDS011;63119;51.788;8.824;2022-10-31T11:11:25;15.00;;;7.37;;
74612;SDS011;63119;51.788;8.824;2022-10-31T11:14:28;15.00;;;7.00;;
74612;SDS011;63119;51.788;8.824;2022-10-31T11:16:49;12.27;;;6.45;;
74612;SDS011;63119;51.788;8.824;2022-10-31T11:19:22;14.82;;;6.63;;
74612;SDS011;63119;51.788;8.824;2022-10-31T11:21:51;13.57;;;5.93;;
74612;SDS011;63119;51.788;8.824;2022-10-31T11:24:18;12.20;;;5.65;;
74612;SDS011;63119;51.788;8.824;2022-10-31T11:26:47;12.30;;;4.82;;
74612;SDS011;63119;51.788;8.824;2022-10-31T11:29:20;10.25;;;5.05;;
74612;SDS011;63119;51.788;8.824;2022-10-31T11:31:51;12.18;;;5.70;;
74612;SDS011;63119;51.788;8.824;2022-10-31T11:34:22;11.50;;;5.05;;
74612;SDS011;63119;51.788;8.824;2022-10-31T11:36:53;9.57;;;4.57;;
74612;SDS011;63119;51.788;8.824;2022-10-31T11:39:22;11.52;;;5.32;;
74612;SDS011;63119;51.788;8.824;2022-10-31T11:41:49;10.65;;;5.00;;
74612;SDS011;63119;51.788;8.824;2022-10-31T11:44:26;7.22;;;4.38;;
74612;SDS011;63119;51.788;8.824;2022-10-31T11:51:54;10.48;;;4.15;;
74612;SDS011;63119;51.788;8.824;2022-10-31T11:54:27;9.68;;;4.13;;
74612;SDS011;63119;51.788;8.824;2022-10-31T11:56:55;9.48;;;4.22;;
74612;SDS011;63119;51.788;8.824;2022-10-31T11:59:23;9.48;;;4.30;;
74612;SDS011;63119;51.788;8.824;2022-10-31T12:01:51;11.65;;;4.93;;
74612;SDS011;63119;51.788;8.824;2022-10-31T12:04:18;10.75;;;4.80;;
74612;SDS011;63119;51.788;8.824;2022-10-31T12:06:54;10.30;;;4.05;;
74612;SDS011;63119;51.788;8.824;2022-10-31T12:09:21;8.23;;;4.43;;
74612;SDS011;63119;51.788;8.824;2022-10-31T12:14:24;9.98;;;4.68;;
74612;SDS011;63119;51.788;8.824;2022-10-31T12:39:14;13.50;;;6.47;;
74612;SDS011;63119;51.788;8.824;2022-10-31T12:41:51;16.10;;;6.65;;
74612;SDS011;63119;51.788;8.824;2022-10-31T12:44:44;14.85;;;6.25;;
74612;SDS011;63119;51.788;8.824;2022-10-31T12:52:59;19.73;;;6.95;;
74612;SDS011;63119;51.788;8.824;2022-10-31T12:55:31;17.33;;;7.65;;
74612;SDS011;63119;51.788;8.824;2022-10-31T12:58:01;14.20;;;7.05;;
74612;SDS011;63119;51.788;8.824;2022-10-31T13:00:34;13.45;;;6.57;;
74612;SDS011;63119;51.788;8.824;2022-10-31T13:06:01;16.35;;;7.93;;
74612;SDS011;63119;51.788;8.824;2022-10-31T13:08:34;16.67;;;7.50;;
74612;SDS011;63119;51.788;8.824;2022-10-31T13:11:15;12.32;;;6.90;;
74612;SDS011;63119;51.788;8.824;2022-10-31T13:14:00;14.55;;;7.10;;
74612;SDS011;63119;51.788;8.824;2022-10-31T13:16:47;15.75;;;7.70;;
74612;SDS011;63119;51.788;8.824;2022-10-31T13:22:00;16.88;;;7.32;;
74612;SDS011;63119;51.788;8.824;2022-10-31T13:24:33;12.73;;;6.63;;
74612;SDS011;63119;51.788;8.824;2022-10-31T13:27:08;18.45;;;6.45;;
74612;SDS011;63119;51.788;8.824;2022-10-31T13:30:01;18.42;;;7.00;;
74612;SDS011;63119;51.788;8.824;2022-10-31T13:38:10;14.00;;;6.80;;
74612;SDS011;63119;51.788;8.824;2022-10-31T13:45:57;16.38;;;6.88;;
74612;SDS011;63119;51.788;8.824;2022-10-31T13:51:00;14.02;;;6.50;;
74612;SDS011;63119;51.788;8.824;2022-10-31T13:56:13;19.40;;;7.38;;
74612;SDS011;63119;51.788;8.824;2022-10-31T13:58:42;17.02;;;6.97;;
74612;SDS011;63119;51.788;8.824;2022-10-31T14:01:22;12.20;;;6.85;;
74612;SDS011;63119;51.788;8.824;2022-10-31T14:03:55;14.93;;;7.32;;
74612;SDS011;63119;51.788;8.824;2022-10-31T14:06:34;15.52;;;6.82;;
74612;SDS011;63119;51.788;8.824;2022-10-31T14:09:27;15.25;;;7.38;;
74612;SDS011;63119;51.788;8.824;2022-10-31T14:11:56;19.20;;;9.00;;
74612;SDS011;63119;51.788;8.824;2022-10-31T14:14:26;14.60;;;6.57;;
74612;SDS011;63119;51.788;8.824;2022-10-31T14:16:57;13.60;;;5.93;;
74612;SDS011;63119;51.788;8.824;2022-10-31T14:19:23;12.38;;;6.22;;
74612;SDS011;63119;51.788;8.824;2022-10-31T14:21:50;12.73;;;6.32;;
74612;SDS011;63119;51.788;8.824;2022-10-31T14:29:32;17.00;;;7.15;;
74612;SDS011;63119;51.788;8.824;2022-10-31T14:32:01;14.80;;;7.00;;
74612;SDS011;63119;51.788;8.824;2022-10-31T14:34:32;17.88;;;6.88;;
74612;SDS011;63119;51.788;8.824;2022-10-31T14:45:25;14.40;;;6.10;;
74612;SDS011;63119;51.788;8.824;2022-10-31T14:51:01;12.88;;;5.63;;
74612;SDS011;63119;51.788;8.824;2022-10-31T14:56:08;12.05;;;5.38;;
74612;SDS011;63119;51.788;8.824;2022-10-31T14:58:38;12.60;;;6.13;;
74612;SDS011;63119;51.788;8.824;2022-10-31T15:01:24;14.18;;;6.10;;
74612;SDS011;63119;51.788;8.824;2022-10-31T15:03:49;11.75;;;6.30;;
74612;SDS011;63119;51.788;8.824;2022-10-31T15:06:18;14.68;;;6.43;;
74612;SDS011;63119;51.788;8.824;2022-10-31T15:08:53;16.42;;;6.93;;
74612;SDS011;63119;51.788;8.824;2022-10-31T15:11:20;13.52;;;6.22;;
74612;SDS011;63119;51.788;8.824;2022-10-31T15:16:53;14.05;;;6.05;;
74612;SDS011;63119;51.788;8.824;2022-10-31T15:19:14;17.63;;;6.38;;
74612;SDS011;63119;51.788;8.824;2022-10-31T15:21:45;17.50;;;6.53;;
74612;SDS011;63119;51.788;8.824;2022-10-31T15:24:11;10.00;;;5.35;;
74612;SDS011;63119;51.788;8.824;2022-10-31T15:26:43;12.38;;;5.93;;
74612;SDS011;63119;51.788;8.824;2022-10-31T15:29:12;15.35;;;6.15;;
74612;SDS011;63119;51.788;8.824;2022-10-31T15:31:54;12.48;;;6.53;;
74612;SDS011;63119;51.788;8.824;2022-10-31T15:34:29;14.85;;;6.18;;
74612;SDS011;63119;51.788;8.824;2022-10-31T15:36:58;11.93;;;6.40;;
74612;SDS011;63119;51.788;8.824;2022-10-31T15:39:23;11.68;;;6.10;;
74612;SDS011;63119;51.788;8.824;2022-10-31T15:41:53;14.68;;;7.40;;
74612;SDS011;63119;51.788;8.824;2022-10-31T15:44:21;13.30;;;6.47;;
74612;SDS011;63119;51.788;8.824;2022-10-31T15:46:56;15.00;;;7.35;;
74612;SDS011;63119;51.788;8.824;2022-10-31T15:52:09;14.65;;;7.82;;
74612;SDS011;63119;51.788;8.824;2022-10-31T15:54:44;15.07;;;7.68;;
74612;SDS011;63119;51.788;8.824;2022-10-31T15:57:13;16.80;;;6.82;;
74612;SDS011;63119;51.788;8.824;2022-10-31T15:59:39;15.27;;;6.72;;
74612;SDS011;63119;51.788;8.824;2022-10-31T16:02:10;13.55;;;6.45;;
74612;SDS011;63119;51.788;8.824;2022-10-31T16:04:37;16.50;;;7.53;;
74612;SDS011;63119;51.788;8.824;2022-10-31T16:07:12;13.23;;;6.60;;
74612;SDS011;63119;51.788;8.824;2022-10-31T16:09:53;13.90;;;7.13;;
74612;SDS011;63119;51.788;8.824;2022-10-31T16:12:21;14.43;;;7.35;;
74612;SDS011;63119;51.788;8.824;2022-10-31T16:14:48;15.55;;;6.93;;
74612;SDS011;63119;51.788;8.824;2022-10-31T16:17:15;19.70;;;7.93;;
74612;SDS011;63119;51.788;8.824;2022-10-31T16:19:58;16.30;;;7.63;;
74612;SDS011;63119;51.788;8.824;2022-10-31T16:25:12;11.77;;;6.57;;
74612;SDS011;63119;51.788;8.824;2022-10-31T16:27:47;14.80;;;7.65;;
74612;SDS011;63119;51.788;8.824;2022-10-31T16:33:05;13.07;;;8.25;;
74612;SDS011;63119;51.788;8.824;2022-10-31T16:35:45;16.67;;;6.95;;
74612;SDS011;63119;51.788;8.824;2022-10-31T16:38:10;16.95;;;7.70;;
74612;SDS011;63119;51.788;8.824;2022-10-31T16:40:37;15.00;;;7.53;;
74612;SDS011;63119;51.788;8.824;2022-10-31T16:43:03;14.60;;;7.50;;
74612;SDS011;63119;51.788;8.824;2022-10-31T16:45:29;20.40;;;8.43;;
74612;SDS011;63119;51.788;8.824;2022-10-31T16:48:04;15.68;;;8.20;;
74612;SDS011;63119;51.788;8.824;2022-10-31T16:50:31;18.02;;;8.10;;
74612;SDS011;63119;51.788;8.824;2022-10-31T16:52:57;14.82;;;8.10;;
74612;SDS011;63119;51.788;8.824;2022-10-31T16:55:22;18.43;;;7.93;;
74612;SDS011;63119;51.788;8.824;2022-10-31T16:57:52;19.50;;;7.57;;
74612;SDS011;63119;51.788;8.824;2022-10-31T17:00:20;17.75;;;7.95;;
74612;SDS011;63119;51.788;8.824;2022-10-31T17:02:47;16.25;;;7.90;;
74612;SDS011;63119;51.788;8.824;2022-10-31T17:05:15;16.20;;;7.53;;
74612;SDS011;63119;51.788;8.824;2022-10-31T17:07:42;17.25;;;9.70;;
74612;SDS011;63119;51.788;8.824;2022-10-31T17:10:08;18.95;;;9.10;;